createdAt,value
2023-05-09T00:01:58.740Z,48.37
2023-05-09T00:04:29.350Z,49.71
2023-05-09T00:06:59.357Z,49.51
2023-05-09T00:09:29.656Z,49.10
2023-05-09T00:11:59.626Z,49.85
2023-05-09T00:14:30.828Z,50.66
2023-05-09T00:17:00.899Z,50.95
2023-05-09T00:19:31.603Z,50.16
2023-05-09T00:22:01.582Z,50.81
2023-05-09T00:24:31.946Z,50.21
2023-05-09T00:27:01.910Z,50.27
2023-05-09T00:29:31.862Z,49.98
2023-05-09T00:32:01.811Z,49.96
2023-05-09T00:34:32.022Z,49.73
2023-05-09T00:37:02.204Z,50.20
2023-05-09T00:39:32.803Z,50.87
2023-05-09T00:42:03.650Z,50.83
2023-05-09T00:44:33.883Z,50.84
2023-05-09T00:47:03.876Z,51.40
2023-05-09T00:49:34.118Z,50.51
2023-05-09T00:52:04.947Z,50.40
2023-05-09T00:54:34.899Z,50.37
2023-05-09T00:57:05.054Z,51.09
2023-05-09T00:59:38.126Z,51.29
2023-05-09T01:02:08.030Z,51.67
2023-05-09T01:04:38.084Z,51.35
2023-05-09T01:07:12.004Z,51.91
2023-05-09T01:09:46.100Z,50.91
2023-05-09T01:12:19.787Z,50.94
2023-05-09T01:14:52.984Z,51.18
2023-05-09T01:17:27.600Z,51.78
2023-05-09T01:20:05.828Z,52.08
2023-05-09T01:22:36.426Z,52.27
2023-05-09T01:25:28.995Z,52.39
2023-05-09T01:28:04.478Z,51.39
2023-05-09T01:30:34.797Z,51.31
2023-05-09T01:33:06.779Z,51.95
2023-05-09T01:35:37.745Z,52.73
2023-05-09T01:38:14.367Z,52.80
2023-05-09T01:40:44.652Z,52.83
2023-05-09T01:43:15.151Z,52.43
2023-05-09T01:45:45.105Z,51.89
2023-05-09T01:48:15.150Z,52.23
2023-05-09T01:50:45.636Z,52.83
2023-05-09T01:53:16.693Z,52.67
2023-05-09T01:55:46.747Z,53.07
2023-05-09T01:58:16.587Z,53.57
2023-05-09T02:00:47.445Z,53.36
2023-05-09T02:03:17.395Z,52.37
2023-05-09T02:05:47.351Z,52.24
2023-05-09T02:08:21.132Z,52.38
2023-05-09T02:10:51.881Z,53.24
2023-05-09T02:13:22.010Z,53.38
2023-05-09T02:15:52.661Z,53.42
2023-05-09T02:18:22.915Z,52.87
2023-05-09T02:20:52.946Z,53.31
2023-05-09T02:23:23.419Z,52.64
2023-05-09T02:25:54.212Z,52.48
2023-05-09T02:28:26.292Z,53.04
2023-05-09T02:30:56.348Z,53.39
2023-05-09T02:33:26.539Z,53.25
2023-05-09T02:35:56.692Z,53.29
2023-05-09T02:38:27.522Z,53.15
2023-05-09T02:40:58.686Z,53.32
2023-05-09T02:43:30.293Z,53.75
2023-05-09T02:46:00.370Z,54.00
2023-05-09T02:48:31.094Z,53.72
2023-05-09T02:51:01.195Z,54.08
2023-05-09T02:53:31.281Z,54.16
2023-05-09T02:56:01.334Z,54.07
2023-05-09T02:58:31.618Z,54.15
2023-05-09T03:01:02.440Z,54.46
2023-05-09T03:03:34.841Z,54.67
2023-05-09T03:06:10.643Z,54.54
2023-05-09T03:08:45.644Z,54.87
2023-05-09T03:11:16.639Z,54.71
2023-05-09T03:13:48.270Z,54.71
2023-05-09T03:16:18.921Z,54.83
2023-05-09T03:18:49.385Z,54.63
2023-05-09T03:21:20.454Z,53.88
2023-05-09T03:23:50.371Z,54.44
2023-05-09T03:26:20.920Z,54.61
2023-05-09T03:28:52.494Z,54.60
2023-05-09T03:31:23.059Z,54.40
2023-05-09T03:33:53.875Z,54.63
2023-05-09T03:36:24.132Z,54.81
2023-05-09T03:38:54.224Z,54.52
2023-05-09T03:41:24.414Z,53.79
2023-05-09T03:43:54.779Z,53.66
2023-05-09T03:46:25.036Z,53.89
2023-05-09T03:48:55.906Z,54.10
2023-05-09T03:51:26.774Z,53.65
2023-05-09T03:53:56.818Z,54.08
2023-05-09T03:56:27.063Z,53.92
2023-05-09T03:58:57.415Z,54.20
2023-05-09T04:01:27.725Z,53.38
2023-05-09T04:03:58.672Z,53.23
2023-05-09T04:06:30.127Z,53.27
2023-05-09T04:09:00.379Z,52.67
2023-05-09T04:11:31.151Z,52.43
2023-05-09T04:14:01.836Z,52.35
2023-05-09T04:16:34.905Z,52.21
2023-05-09T04:19:05.206Z,52.10
2023-05-09T04:21:35.285Z,52.57
2023-05-09T04:24:07.252Z,52.65
2023-05-09T04:26:44.301Z,52.57
2023-05-09T04:29:16.684Z,52.16
2023-05-09T04:31:50.547Z,51.65
2023-05-09T04:34:21.234Z,51.66
2023-05-09T04:36:52.124Z,51.68
2023-05-09T04:39:22.722Z,50.96
2023-05-09T04:41:59.532Z,50.89
2023-05-09T04:44:29.775Z,50.65
2023-05-09T04:46:59.813Z,50.48
2023-05-09T04:49:32.099Z,50.21
2023-05-09T04:52:01.927Z,50.41
2023-05-09T04:54:32.152Z,50.37
2023-05-09T04:57:13.775Z,49.86
2023-05-09T04:59:48.826Z,49.25
2023-05-09T05:02:18.812Z,48.26
2023-05-09T05:04:49.079Z,47.69
2023-05-09T05:07:19.225Z,47.90
2023-05-09T05:09:49.151Z,48.35
2023-05-09T05:12:19.144Z,48.30
2023-05-09T05:14:49.493Z,47.59
2023-05-09T05:17:21.868Z,46.95
2023-05-09T05:19:51.876Z,47.00
2023-05-09T05:22:22.055Z,47.30
2023-05-09T05:24:52.259Z,47.50
2023-05-09T05:27:22.592Z,47.54
2023-05-09T05:29:52.589Z,47.49
2023-05-09T05:32:22.440Z,46.86
2023-05-09T05:34:52.740Z,46.00
2023-05-09T05:37:22.667Z,46.12
2023-05-09T05:39:53.269Z,47.05
2023-05-09T05:42:23.564Z,46.98
2023-05-09T05:44:53.984Z,47.41
2023-05-09T05:47:24.004Z,46.78
2023-05-09T05:49:55.035Z,46.15
2023-05-09T05:52:26.371Z,45.55
2023-05-09T05:54:57.184Z,45.53
2023-05-09T05:57:27.551Z,45.15
2023-05-09T05:59:57.824Z,44.91
2023-05-09T06:02:28.057Z,44.93
2023-05-09T06:04:58.156Z,44.63
2023-05-09T06:07:28.106Z,44.37
2023-05-09T06:09:58.289Z,44.48
2023-05-09T06:12:28.662Z,44.38
2023-05-09T06:14:58.959Z,44.08
2023-05-09T06:17:29.477Z,43.54
2023-05-09T06:19:59.748Z,43.07
2023-05-09T06:22:29.781Z,42.97
2023-05-09T06:24:59.823Z,43.56
2023-05-09T06:27:29.884Z,43.29
2023-05-09T06:30:01.340Z,42.43
2023-05-09T06:32:33.176Z,41.80
2023-05-09T06:35:03.337Z,40.50
2023-05-09T06:37:35.796Z,40.36
2023-05-09T06:40:08.065Z,40.93
2023-05-09T06:42:38.741Z,41.76
2023-05-09T06:45:10.182Z,42.04
2023-05-09T06:47:40.801Z,40.81
2023-05-09T06:50:11.545Z,39.78
2023-05-09T06:52:41.399Z,40.09
2023-05-09T06:55:12.410Z,40.54
2023-05-09T06:57:42.618Z,40.86
2023-05-09T07:00:15.174Z,40.00
2023-05-09T07:02:45.419Z,40.39
2023-05-09T07:05:16.535Z,40.09
2023-05-09T07:07:46.996Z,39.52
2023-05-09T07:10:17.314Z,38.98
2023-05-09T07:12:47.299Z,38.19
2023-05-09T07:15:25.900Z,38.36
2023-05-09T07:18:02.586Z,36.60
2023-05-09T07:20:34.079Z,35.94
2023-05-09T07:23:04.312Z,36.19
2023-05-09T07:25:34.222Z,34.79
2023-05-09T07:28:04.427Z,36.26
2023-05-09T07:30:34.686Z,35.52
2023-05-09T07:33:04.856Z,34.24
2023-05-09T07:35:35.385Z,33.95
2023-05-09T07:38:06.457Z,33.51
2023-05-09T07:40:38.835Z,34.50
2023-05-09T07:43:08.787Z,33.97
2023-05-09T07:45:40.085Z,34.05
2023-05-09T07:48:09.970Z,33.95
2023-05-09T07:50:40.385Z,34.07
2023-05-09T07:53:10.428Z,33.75
2023-05-09T07:55:40.381Z,33.94
2023-05-09T07:58:10.348Z,33.58
2023-05-09T08:00:40.409Z,31.58
2023-05-09T08:03:11.272Z,31.27
2023-05-09T08:05:41.434Z,30.60
2023-05-09T08:08:11.330Z,32.06
2023-05-09T08:10:41.365Z,31.63
2023-05-09T08:13:11.454Z,31.70
2023-05-09T08:15:41.345Z,32.08
2023-05-09T08:18:11.382Z,30.40
2023-05-09T08:20:41.365Z,30.99
2023-05-09T08:23:11.449Z,30.41
2023-05-09T08:25:41.575Z,30.77
2023-05-09T08:28:12.204Z,29.89
2023-05-09T08:30:42.049Z,28.28
2023-05-09T08:33:12.057Z,27.78
2023-05-09T08:35:42.014Z,28.38
2023-05-09T08:38:12.030Z,28.93
2023-05-09T08:40:42.353Z,29.49
2023-05-09T08:43:12.904Z,28.79
2023-05-09T08:45:46.984Z,29.02
2023-05-09T08:48:17.741Z,28.09
2023-05-09T08:50:47.644Z,27.99
2023-05-09T08:53:17.746Z,27.56
2023-05-09T08:55:47.636Z,28.01
2023-05-09T08:58:19.700Z,28.56
2023-05-09T09:00:50.761Z,28.29
2023-05-09T09:03:20.603Z,27.81
2023-05-09T09:05:50.700Z,28.39
2023-05-09T09:08:21.324Z,28.01
2023-05-09T09:10:51.522Z,28.24
2023-05-09T09:13:21.960Z,28.11
2023-05-09T09:15:51.966Z,27.67
2023-05-09T09:18:24.568Z,26.90
2023-05-09T09:20:58.040Z,26.88
2023-05-09T09:23:28.184Z,26.67
2023-05-09T09:26:02.343Z,27.31
2023-05-09T09:28:32.895Z,27.10
2023-05-09T09:31:02.782Z,27.02
2023-05-09T09:33:32.876Z,26.99
2023-05-09T09:36:02.928Z,26.97
2023-05-09T09:38:40.623Z,25.79
2023-05-09T09:41:13.141Z,24.44
2023-05-09T09:43:45.189Z,25.60
2023-05-09T09:46:17.254Z,26.02
2023-05-09T09:48:55.034Z,26.25
2023-05-09T09:51:24.870Z,26.14
2023-05-09T09:53:54.710Z,25.33
2023-05-09T09:56:25.414Z,25.25
2023-05-09T09:59:10.351Z,25.52
2023-05-09T10:01:57.328Z,26.31
2023-05-09T10:04:29.407Z,26.69
2023-05-09T10:07:00.358Z,26.50
2023-05-09T10:09:30.599Z,25.96
2023-05-09T10:12:04.132Z,25.91
2023-05-09T10:14:38.860Z,26.00
2023-05-09T10:17:09.228Z,26.36
2023-05-09T10:19:39.662Z,25.86
2023-05-09T10:22:10.193Z,25.46
2023-05-09T10:24:42.403Z,24.56
2023-05-09T10:27:13.305Z,25.40
2023-05-09T10:29:46.917Z,25.75
2023-05-09T10:32:18.264Z,25.25
2023-05-09T10:34:50.238Z,25.87
2023-05-09T10:37:20.661Z,25.69
2023-05-09T10:39:53.948Z,25.42
2023-05-09T10:42:26.752Z,25.19
2023-05-09T10:44:57.560Z,24.82
2023-05-09T10:47:28.343Z,24.69
2023-05-09T10:49:58.375Z,24.00
2023-05-09T10:52:32.065Z,23.11
2023-05-09T10:55:04.130Z,23.31
2023-05-09T10:57:38.148Z,24.22
2023-05-09T11:00:11.320Z,23.97
2023-05-09T11:02:41.893Z,24.64
2023-05-09T11:05:15.940Z,25.01
2023-05-09T11:07:46.282Z,25.25
2023-05-09T11:10:20.220Z,25.18
2023-05-09T11:12:58.188Z,24.91
2023-05-09T11:15:29.652Z,25.03
2023-05-09T11:18:09.678Z,24.14
2023-05-09T11:20:44.185Z,23.68
2023-05-09T11:23:17.311Z,23.62
2023-05-09T11:25:48.787Z,24.33
2023-05-09T11:28:29.425Z,24.78
2023-05-09T11:31:11.455Z,24.02
2023-05-09T11:33:42.130Z,23.94
2023-05-09T11:36:19.545Z,23.96
2023-05-09T11:38:49.488Z,24.34
2023-05-09T11:41:19.318Z,24.52
2023-05-09T11:43:49.185Z,24.37
2023-05-09T11:46:19.340Z,24.63
2023-05-09T11:48:50.639Z,24.51
2023-05-09T11:51:20.497Z,24.83
2023-05-09T11:53:54.190Z,25.01
2023-05-09T11:56:24.342Z,24.83
2023-05-09T11:58:54.755Z,24.54
2023-05-09T12:01:24.788Z,24.46
2023-05-09T12:03:54.702Z,24.51
2023-05-09T12:06:26.103Z,23.67
2023-05-09T12:08:57.393Z,24.22
2023-05-09T12:11:28.603Z,25.00
2023-05-09T12:14:00.479Z,24.54
2023-05-09T12:16:30.784Z,24.31
2023-05-09T12:19:00.930Z,23.49
2023-05-09T12:21:31.511Z,23.32
2023-05-09T12:24:01.445Z,23.05
2023-05-09T12:26:31.643Z,23.52
2023-05-09T12:29:01.930Z,23.84
2023-05-09T12:37:18.066Z,23.17
2023-05-09T12:41:30.897Z,23.51
2023-05-09T12:44:29.652Z,23.43
2023-05-09T12:47:21.734Z,23.39
2023-05-09T12:49:51.761Z,23.46
2023-05-09T12:52:21.751Z,23.69
2023-05-09T12:54:51.979Z,23.88
2023-05-09T12:57:29.492Z,23.80
2023-05-09T13:00:00.991Z,23.87
2023-05-09T13:02:35.772Z,24.02
2023-05-09T13:05:11.118Z,23.89
2023-05-09T13:07:42.655Z,23.86
2023-05-09T13:10:16.004Z,23.93
2023-05-09T13:12:49.067Z,24.01
2023-05-09T13:15:20.236Z,24.53
2023-05-09T13:17:50.980Z,24.37
2023-05-09T13:20:21.247Z,24.35
2023-05-09T13:22:51.240Z,24.36
2023-05-09T13:25:21.832Z,24.54
2023-05-09T13:27:51.693Z,24.27
2023-05-09T13:30:21.541Z,24.10
2023-05-09T13:32:52.145Z,24.53
2023-05-09T13:35:22.015Z,24.57
2023-05-09T13:37:52.106Z,25.17
2023-05-09T13:40:22.089Z,25.11
2023-05-09T13:42:52.265Z,24.64
2023-05-09T13:45:23.512Z,25.05
2023-05-09T13:47:53.488Z,24.98
2023-05-09T13:50:23.620Z,24.87
2023-05-09T13:52:53.744Z,24.39
2023-05-09T13:55:26.001Z,23.67
2023-05-09T13:57:56.060Z,23.98
2023-05-09T14:00:28.954Z,24.00
2023-05-09T14:02:59.057Z,24.27
2023-05-09T14:05:29.028Z,24.09
2023-05-09T14:07:58.971Z,24.25
2023-05-09T14:10:29.091Z,24.27
2023-05-09T14:12:59.599Z,24.50
2023-05-09T14:15:30.014Z,24.75
2023-05-09T14:17:59.915Z,24.55
2023-05-09T14:20:29.904Z,24.69
2023-05-09T14:23:00.707Z,24.44
2023-05-09T14:25:30.916Z,24.22
2023-05-09T14:28:01.478Z,24.00
2023-05-09T14:30:31.727Z,23.83
2023-05-09T14:33:01.568Z,23.93
2023-05-09T14:35:34.154Z,23.64
2023-05-09T14:38:04.312Z,22.97
2023-05-09T14:40:34.453Z,22.55
2023-05-09T14:43:04.510Z,22.61
2023-05-09T14:45:35.379Z,23.35
2023-05-09T14:48:05.796Z,23.56
2023-05-09T14:50:36.557Z,23.53
2023-05-09T14:53:06.618Z,23.67
2023-05-09T14:55:37.305Z,23.36
2023-05-09T14:58:07.807Z,23.44
2023-05-09T15:00:38.101Z,23.36
2023-05-09T15:03:08.003Z,24.02
2023-05-09T15:05:37.900Z,24.42
2023-05-09T15:08:08.134Z,24.47
2023-05-09T15:10:38.224Z,24.50
2023-05-09T15:13:08.398Z,24.10
2023-05-09T15:15:39.553Z,24.25
2023-05-09T15:18:13.294Z,24.27
2023-05-09T15:20:43.749Z,24.60
2023-05-09T15:23:14.198Z,24.85
2023-05-09T15:25:44.536Z,25.20
2023-05-09T15:28:14.466Z,25.01
2023-05-09T15:30:45.423Z,25.41
2023-05-09T15:33:15.709Z,25.33
2023-05-09T15:35:46.824Z,25.36
2023-05-09T15:38:17.215Z,25.55
2023-05-09T15:40:47.824Z,25.70
2023-05-09T15:43:17.960Z,25.88
2023-05-09T15:45:48.280Z,25.56
2023-05-09T15:48:18.287Z,25.55
2023-05-09T15:50:49.040Z,25.56
2023-05-09T15:53:19.166Z,25.45
2023-05-09T15:55:49.519Z,25.16
2023-05-09T15:58:20.098Z,24.87
2023-05-09T16:00:52.318Z,24.90
2023-05-09T16:03:23.262Z,24.48
2023-05-09T16:05:53.335Z,24.23
2023-05-09T16:08:23.618Z,24.69
2023-05-09T16:10:53.515Z,24.92
2023-05-09T16:13:23.861Z,24.81
2023-05-09T16:15:54.183Z,24.60
2023-05-09T16:18:24.503Z,24.97
2023-05-09T16:20:54.878Z,25.15
2023-05-09T16:23:26.084Z,25.34
2023-05-09T16:25:56.094Z,25.59
2023-05-09T16:28:28.018Z,25.55
2023-05-09T16:30:58.012Z,25.39
2023-05-09T16:33:28.487Z,25.39
2023-05-09T16:35:59.155Z,25.62
2023-05-09T16:38:29.042Z,25.75
2023-05-09T16:40:59.061Z,26.11
2023-05-09T16:43:30.692Z,25.84
2023-05-09T16:46:00.742Z,26.22
2023-05-09T16:48:30.893Z,26.43
2023-05-09T16:51:00.756Z,26.52
2023-05-09T16:53:30.670Z,26.75
2023-05-09T16:56:00.561Z,26.81
2023-05-09T16:58:30.768Z,26.91
2023-05-09T17:01:02.220Z,26.85
2023-05-09T17:03:32.289Z,27.01
2023-05-09T17:06:02.574Z,27.18
2023-05-09T17:08:32.600Z,27.30
2023-05-09T17:11:02.526Z,27.50
2023-05-09T17:13:32.617Z,27.74
2023-05-09T17:16:02.754Z,27.61
2023-05-09T17:18:37.370Z,27.60
2023-05-09T17:21:07.805Z,27.63
2023-05-09T17:23:38.272Z,27.81
2023-05-09T17:26:08.322Z,28.05
2023-05-09T17:28:38.232Z,28.01
2023-05-09T17:31:08.331Z,28.29
2023-05-09T17:33:39.926Z,28.23
2023-05-09T17:36:10.454Z,28.41
2023-05-09T17:38:40.586Z,28.66
2023-05-09T17:41:10.435Z,28.87
2023-05-09T17:43:42.573Z,29.24
2023-05-09T17:46:12.664Z,29.64
2023-05-09T17:48:42.804Z,29.56
2023-05-09T17:51:12.705Z,29.80
2023-05-09T17:53:42.903Z,29.95
2023-05-09T17:56:12.961Z,29.79
2023-05-09T17:58:43.069Z,30.13
2023-05-09T18:01:13.545Z,30.09
2023-05-09T18:03:43.489Z,30.26
2023-05-09T18:06:13.482Z,30.52
2023-05-09T18:08:43.413Z,30.52
2023-05-09T18:11:13.598Z,30.93
2023-05-09T18:13:46.426Z,31.00
2023-05-09T18:16:16.517Z,31.19
2023-05-09T18:18:46.521Z,31.24
2023-05-09T18:21:16.403Z,31.28
2023-05-09T18:23:46.358Z,31.55
2023-05-09T18:26:17.021Z,31.61
2023-05-09T18:28:47.124Z,31.80
2023-05-09T18:31:18.085Z,32.29
2023-05-09T18:33:47.958Z,32.33
2023-05-09T18:36:18.221Z,32.04
2023-05-09T18:42:06.293Z,32.89
2023-05-09T18:44:37.447Z,33.00
2023-05-09T18:47:07.676Z,32.92
2023-05-09T18:49:38.684Z,32.75
2023-05-09T18:52:08.806Z,33.01
2023-05-09T18:54:41.153Z,33.23
2023-05-09T18:57:11.121Z,33.44
2023-05-09T18:59:40.990Z,33.37
2023-05-09T19:02:11.124Z,33.42
2023-05-09T19:04:48.205Z,33.57
2023-05-09T19:07:18.290Z,33.52
2023-05-09T19:09:48.554Z,33.93
2023-05-09T19:12:18.672Z,33.96
2023-05-09T19:14:49.041Z,34.24
2023-05-09T19:17:19.000Z,34.29
2023-05-09T19:19:49.066Z,34.29
2023-05-09T19:22:18.923Z,34.64
2023-05-09T19:24:51.468Z,34.92
2023-05-09T19:27:22.583Z,34.83
2023-05-09T19:40:32.371Z,35.25
2023-05-09T19:43:02.280Z,35.60
2023-05-09T19:45:32.304Z,35.90
2023-05-09T19:48:02.441Z,35.62
2023-05-09T19:50:32.716Z,35.85
2023-05-09T19:53:02.540Z,36.11
2023-05-09T19:55:32.591Z,36.24
2023-05-09T19:58:02.855Z,36.42
2023-05-09T20:00:33.493Z,36.32
2023-05-09T20:03:04.140Z,36.30
2023-05-09T20:05:35.409Z,36.18
2023-05-09T20:08:05.645Z,36.03
2023-05-09T20:10:37.794Z,36.46
2023-05-09T20:13:07.821Z,36.93
2023-05-09T20:15:39.272Z,37.46
2023-05-09T20:18:09.231Z,37.57
2023-05-09T20:20:39.332Z,37.21
2023-05-09T20:23:09.217Z,37.38
2023-05-09T20:25:39.915Z,37.49
2023-05-09T20:28:11.928Z,37.72
2023-05-09T20:30:42.734Z,37.96
2023-05-09T20:33:12.595Z,37.95
2023-05-09T20:35:43.646Z,38.94
2023-05-09T20:38:13.570Z,39.40
2023-05-09T20:40:44.282Z,38.88
2023-05-09T20:43:14.233Z,38.97
2023-05-09T20:45:44.178Z,39.17
2023-05-09T20:48:14.124Z,39.15
2023-05-09T20:50:43.981Z,39.88
2023-05-09T20:53:14.585Z,40.53
2023-05-09T20:55:44.442Z,40.53
2023-05-09T20:58:14.885Z,39.98
2023-05-09T21:00:47.657Z,40.70
2023-05-09T21:03:17.646Z,41.62
2023-05-09T21:05:47.540Z,42.16
2023-05-09T21:08:18.686Z,42.43
2023-05-09T21:10:48.930Z,42.60
2023-05-09T21:13:19.332Z,42.07
2023-05-09T21:15:51.547Z,42.53
2023-05-09T21:18:21.801Z,41.92
2023-05-09T21:20:51.877Z,41.93
2023-05-09T21:23:22.417Z,41.77
2023-05-09T21:25:52.295Z,42.32
2023-05-09T21:28:22.541Z,42.26
2023-05-09T21:30:53.556Z,42.31
2023-05-09T21:33:23.924Z,42.29
2023-05-09T21:35:53.810Z,42.83
2023-05-09T21:38:24.284Z,42.43
2023-05-09T21:40:54.256Z,43.27
2023-05-09T21:43:26.470Z,44.81
2023-05-09T21:45:56.648Z,44.24
2023-05-09T21:48:26.648Z,44.04
2023-05-09T21:50:56.708Z,43.90
2023-05-09T21:53:26.628Z,44.72
2023-05-09T21:55:56.476Z,44.55
2023-05-09T21:58:26.523Z,44.66
2023-05-09T22:00:56.338Z,45.20
2023-05-09T22:03:26.338Z,45.53
2023-05-09T22:05:56.670Z,45.21
2023-05-09T22:08:26.803Z,45.13
2023-05-09T22:10:57.177Z,45.33
2023-05-09T22:13:28.853Z,45.91
2023-05-09T22:15:58.882Z,46.86
2023-05-09T22:18:29.272Z,46.77
2023-05-09T22:20:59.314Z,46.17
2023-05-09T22:23:29.855Z,45.94
2023-05-09T22:25:59.937Z,46.20
2023-05-09T22:28:31.924Z,46.17
2023-05-09T22:31:02.232Z,46.68
2023-05-09T22:33:32.543Z,47.18
2023-05-09T22:36:02.972Z,46.60
2023-05-09T22:38:32.975Z,47.73
2023-05-09T22:41:03.067Z,47.86
2023-05-09T22:43:38.882Z,47.31
2023-05-09T22:46:09.645Z,47.08
2023-05-09T22:48:39.530Z,47.30
2023-05-09T22:51:09.604Z,47.25
2023-05-09T22:53:40.076Z,47.46
2023-05-09T22:56:10.811Z,48.83
2023-05-09T22:58:41.363Z,49.39
2023-05-09T23:01:11.390Z,49.76
2023-05-09T23:03:41.748Z,49.66
2023-05-09T23:06:11.663Z,49.42
2023-05-09T23:08:41.670Z,48.84
2023-05-09T23:11:11.900Z,49.27
2023-05-09T23:13:42.414Z,49.58
2023-05-09T23:16:12.728Z,49.55
2023-05-09T23:18:42.805Z,50.30
2023-05-09T23:21:13.083Z,49.91
2023-05-09T23:23:43.121Z,50.56
2023-05-09T23:26:13.248Z,50.57
2023-05-09T23:28:43.288Z,50.74
2023-05-09T23:31:13.410Z,50.15
2023-05-09T23:33:43.992Z,51.10
2023-05-09T23:36:14.034Z,51.13
2023-05-09T23:38:44.193Z,50.97
2023-05-09T23:41:14.369Z,50.93
2023-05-09T23:43:44.257Z,50.84
2023-05-09T23:46:14.360Z,52.08
2023-05-09T23:48:44.412Z,51.99
2023-05-09T23:51:14.276Z,52.12
2023-05-09T23:53:44.367Z,51.67
2023-05-09T23:56:14.302Z,52.01
2023-05-09T23:58:44.484Z,52.46
